Kholmogory, Russia
Current Conditions -  °F | °C
As of 1:30 AM on Tuesday 23 Dec 2014 (Local Time) from ULAA Reporting Station
Overcast Overcast  
Wind Chill: 16°   Ceiling: 2400
Heat Index: 16°   Visibility: 6mi
Dew Point: 16°   Wind: 2mph
Humidity: 100%   Direction: NA
Pressure: 29.12"   Gusts: NA
Location:  64.23°N, 41.65°E
Report Text: ULAA 222230Z VRB01MPS 9999 OVC024 M09/M09 Q0986 BECMG 3000 -SHSN BR BKN005CB RMK QFE739/0985 SC036
Loading
Personal Weather Stations






























Interactive Weather Map New forecast layout! Learn more

10-Day Weather Forecast

Advertisements
Track Severe Weather on mobile